• Join FlightAware (Why Join?)
  • Login
  • US Flag 
03:25AM EDT


 

Airport Tracker/Info


-or-


 

Live Flight TrackerFlight Track Log ✈ GJS3706 ✈ 14-May-2013 ✈ KPWM - KORD

Flight Track Log - Related Links

Times and Time Zones

All times are in EDT time to prevent confusion due to time zone crossing. See the GJS3706 flight status page for this flight to view local times or setup timezone preferences in your user account.

Time Position Orientation Groundspeed Altitude Reporting Facility
EDT Latitude Longitude Course Direction KTS MPH feet Rate Location/Type
06:58AM 43.6592 -70.4828 243° Southwest 228 262 4,900  Level Boston Center
06:59AM 43.6794 -70.5797 286° West 250 288 7,700 2,760 Climbing Boston Center
07:00AM 43.6978 -70.6797 284° West 263 303 10,500 2,040 Climbing Boston Center
07:01AM 43.7181 -70.7942 284° West 290 334 11,800 1,920 Climbing Boston Center
07:02AM 43.6886 -70.9242 253° West 340 391 14,400 2,280 Climbing Boston Center
07:03AM 43.7170 -70.7956 264° West  Level FlightAware Approximate
07:03AM 43.6528 -71.0511 249° West 347 399 16,400  Level Boston Center
07:04AM 43.6789 -70.9174 243° Southwest  Level FlightAware Approximate
07:04AM 43.6272 -71.1867 255° West 364 419 18,400  Level Boston Center
07:05AM 43.6058 -71.3247 258° West 364 419 20,300 1,740 Climbing Boston Center
07:06AM 43.5781 -71.4686 255° West 375 432 21,900 1,500 Climbing Boston Center
07:07AM 43.5644 -71.6178 263° West 389 448 23,400 1,500 Climbing Boston Center
07:08AM 43.5531 -71.7697 264° West 400 460 25,000 1,200 Climbing Boston Center
07:09AM 43.5414 -71.9275 264° West 413 475 25,900 1,140 Climbing Boston Center
07:10AM 43.5314 -72.0850 265° West 413 475 27,300 1,200 Climbing Boston Center
07:11AM 43.5214 -72.2453 265° West 423 487 28,400 960 Climbing Boston Center
07:12AM 43.5092 -72.4058 264° West 423 487 29,300 900 Climbing Boston Center
07:13AM 43.4967 -72.5689 264° West 428 493 30,300 900 Climbing Boston Center
07:14AM 43.4858 -72.7347 265° West 428 493 31,200 900 Climbing Boston Center
07:15AM 43.4706 -72.9006 263° West 428 493 32,100 1,020 Climbing Boston Center
07:16AM 43.4575 -73.0464 263° West 433 498 33,300 1,020 Climbing Boston Center
07:17AM 43.4439 -73.2092 263° West 433 498 34,200 780 Climbing Boston Center
07:18AM 43.4283 -73.3719 263° West 428 493 34,900 660 Climbing Boston Center
07:19AM 43.4164 -73.5319 264° West 428 493 35,600 840 Climbing Boston Center
07:20AM 43.4042 -73.6975 264° West 428 493 36,600 840 Climbing Boston Center
07:21AM 43.3875 -73.8800 263° West 435 501 37,300 480 Climbing Boston Center
07:23AM 43.3728 -74.0425 263° West 435 501 37,700 300 Climbing Boston Center
07:24AM 43.3553 -74.2361 263° West 435 501 38,000 120 Climbing Boston Center
07:25AM 43.3400 -74.4069 263° West 446 513 38,000  Level Boston Center
07:26AM 43.3244 -74.5750 263° West 451 519 38,000  Level Boston Center
07:27AM 43.3086 -74.7456 263° West 451 519 38,000  Level Boston Center
07:28AM 43.2925 -74.9161 263° West 451 519 38,000  Level Boston Center
07:29AM 43.2733 -75.1236 263° West 457 526 38,000  Level Boston Center
07:30AM 43.2547 -75.2939 262° West 462 532 38,000  Level Boston Center
07:31AM 43.2403 -75.4472 263° West 456 525 38,000  Level Boston Center
07:32AM 43.2231 -75.6203 262° West 461 531 38,000  Level Boston Center
07:33AM 43.2058 -75.7872 262° West 461 531 38,000  Level Boston Center
07:34AM 43.1500 -76.0500 254° West 450 518 38,000  Level Toronto Center
07:35AM 43.1656 -76.1622 281° West 432 497 38,000 -120 Level Cleveland Center
07:36AM 43.1614 -76.3278 268° West 442 509 37,900  Descending Cleveland Center
07:37AM 43.1592 -76.4931 269° West 442 509 38,000  Climbing Cleveland Center
07:38AM 43.1606 -76.6581 271° West 442 509 38,000  Level Cleveland Center
07:39AM 43.1583 -76.8375 269° West 442 509 38,000  Level Cleveland Center
07:40AM 43.1592 -77.0025 270° West 442 509 38,000  Level Cleveland Center
07:41AM 43.1558 -77.1622 268° West 442 509 38,000  Level Cleveland Center
07:42AM 43.1558 -77.3103 270° West 442 509 38,000  Level Cleveland Center
07:43AM 43.1542 -77.4725 269° West 442 509 38,000  Level Cleveland Center
07:44AM 43.1542 -77.6347 270° West 442 509 38,000  Level Cleveland Center
07:45AM 43.1500 -77.7972 268° West 437 503 38,000  Level Cleveland Center
07:46AM 43.1475 -77.9597 269° West 437 503 38,000  Level Cleveland Center
07:47AM 43.1447 -78.1247 269° West 437 503 38,000  Level Cleveland Center
07:48AM 43.1419 -78.2872 269° West 442 509 38,000  Level Cleveland Center
07:49AM 43.1408 -78.4494 270° West 442 509 38,000  Level Cleveland Center
07:50AM 43.1394 -78.6086 269° West 437 503 38,000  Level Cleveland Center
07:51AM 43.1378 -78.7681 269° West 432 497 38,000  Level Cleveland Center
07:52AM 43.1361 -78.9303 269° West 427 491 38,000  Level Cleveland Center
07:52AM 43.1333 -79.0000 267° West 410 472 38,000  Level Toronto Center
07:53AM 43.1167 -79.1333 260° West 410 472 38,000  Level Toronto Center
07:54AM 43.1167 -79.3167 270° West 410 472 38,000  Level Toronto Center
07:55AM 43.1167 -79.4500 270° West 410 472 38,000  Level Toronto Center
07:56AM 43.1167 -79.6167 270° West 410 472 38,000  Level Toronto Center
07:57AM 43.1167 -79.7667 270° West 410 472 38,000  Level Toronto Center
07:58AM 43.1000 -79.9000 260° West 410 472 38,000  Level Toronto Center
07:59AM 43.1000 -80.0667 270° West 400 460 38,000  Level Toronto Center
08:00AM 43.1000 -80.2333 270° West 400 460 38,000  Level Toronto Center
08:01AM 43.1000 -80.3667 270° West 400 460 38,000  Level Toronto Center
08:02AM 43.1000 -80.5167 270° West 400 460 38,000  Level Toronto Center
08:03AM 43.0833 -80.6833 262° West 390 449 38,000  Level Toronto Center
08:04AM 43.0667 -80.8167 260° West 390 449 38,000  Level Toronto Center
08:05AM 43.0667 -80.9833 270° West 390 449 38,000  Level Toronto Center
08:06AM 43.0667 -81.1333 270° West 390 449 38,000  Level Toronto Center
08:07AM 43.0667 -81.2833 270° West 390 449 38,000  Level Toronto Center
08:08AM 43.0667 -81.4167 270° West 400 460 38,000  Level Toronto Center
08:09AM 43.0500 -81.5667 261° West 400 460 38,000  Level Toronto Center
08:10AM 43.0500 -81.7333 270° West 400 460 38,000  Level Toronto Center
08:11AM 43.0500 -81.8667 270° West 400 460 38,000  Level Toronto Center
08:12AM 43.0333 -82.0333 262° West 400 460 38,000  Level Toronto Center
08:13AM 43.0333 -82.1833 270° West 400 460 38,000  Level Toronto Center
08:14AM 43.0333 -82.3500 270° West 400 460 38,000  Level Toronto Center
08:15AM 43.0167 -82.4833 260° West 400 460 38,000  Level Toronto Center
08:16AM 43.0000 -82.6500 262° West 410 472 38,000  Level Toronto Center
08:17AM 43.0200 -82.7017 298° West 401 461 38,000  Level Cleveland Center
08:18AM 43.0131 -82.8575 267° West 406 467 38,000  Level Cleveland Center
08:19AM 43.0039 -82.9933 265° West 406 467 38,000  Level Cleveland Center
08:20AM 42.9964 -83.1492 266° West 406 467 38,000  Level Cleveland Center
08:21AM 42.9889 -83.3022 266° West 406 467 38,000  Level Cleveland Center
08:22AM 42.9808 -83.4553 266° West 406 467 38,000  Level Cleveland Center
08:23AM 42.9728 -83.6139 266° West 406 467 38,000  Level Cleveland Center
08:24AM 42.9644 -83.7667 266° West 406 467 38,000  Level Cleveland Center
08:25AM 42.9475 -83.9217 262° West 406 467 38,000  Level Cleveland Center
08:26AM 42.9325 -84.0769 263° West 406 467 38,000 -780 Level Cleveland Center
08:27AM 42.9172 -84.2350 263° West 411 473 36,500 -2,040 Descending Cleveland Center
08:28AM 42.8983 -84.4319 263° West 426 490 33,700 -2,100 Descending Chicago Center
08:29AM 42.8831 -84.5906 263° West 424 488 32,000 -840 Descending Chicago Center
08:30AM 42.8658 -84.7522 262° West 429 494 32,000  Level Chicago Center
08:31AM 42.8494 -84.9156 262° West 434 499 32,000  Level Chicago Center
08:32AM 42.8317 -85.0792 262° West 438 504 32,000  Level Chicago Center
08:33AM 42.8142 -85.2444 262° West 441 507 32,000  Level Chicago Center
08:34AM 42.7964 -85.4106 262° West 442 509 32,000 -1,080 Level Chicago Center
08:35AM 42.7661 -85.6103 258° West 447 514 29,800 -2,280 Descending Chicago Center
08:36AM 42.7364 -85.7764 256° West 449 517 27,400 -2,340 Descending Chicago Center
08:37AM 42.7075 -85.9358 256° West 435 501 25,000 -2,400 Descending Chicago Center
08:38AM 42.6806 -86.0861 256° West 412 474 22,500 -2,340 Descending Chicago Center
08:39AM 42.6542 -86.2258 256° West 385 443 20,200 -1,980 Descending Chicago Center
08:40AM 42.6267 -86.3661 255° West 383 441 18,500 -1,680 Descending Chicago Center
08:41AM 42.6011 -86.5047 256° West 378 435 16,800 -1,860 Descending Chicago Center
08:42AM 42.5711 -86.6650 256° West 367 422 14,700 -1,860 Descending Chicago Center
08:44AM 42.5444 -86.7950 254° West 363 418 13,000 -1,380 Descending Chicago Center
08:45AM 42.5106 -86.9164 249° West 352 405 11,900 -1,260 Descending Chicago Center
08:46AM 42.4792 -87.0331 250° West 338 389 10,500 -1,260 Descending Chicago Center
08:47AM 42.4503 -87.1264 247° West 278 320 9,400 -780 Descending Chicago Center
08:48AM 42.4250 -87.2147 249° West 256 295 9,000 -240 Descending Chicago Center
08:49AM 42.3967 -87.3050 247° West 263 303 9,000 -300 Level Chicago Center
08:50AM 42.3647 -87.3969 245° Southwest 231 266 8,500 -540 Descending Chicago Center
08:51AM 42.3381 -87.4642 242° Southwest 209 241 8,000 -300 Descending Chicago Center
08:52AM 42.3131 -87.5281 242° Southwest 197 227 8,000  Level Chicago Center
08:53AM 42.2836 -87.5767 231° Southwest 174 200 8,000 -660 Level Chicago Center
08:54AM 42.2469 -87.6167 219° Southwest 171 197 6,700 -1,320 Descending Chicago Center
08:55AM 42.2094 -87.6608 221° Southwest 178 205 5,300 -840 Descending Chicago Center
08:56AM 42.1636 -87.7100 218° Southwest 177 204 5,000 -660 Descending Chicago Center
08:57AM 42.1239 -87.7544 220° Southwest 183 211 4,000 -960 Descending Chicago Center
08:58AM 42.1000 -87.7833 222° Southwest 147 169 3,300 -840 Descending Chicago TRACON
08:59AM 42.0667 -87.8167 217° Southwest 135 155 2,500 -780 Descending Chicago TRACON
09:00AM 42.0333 -87.8500 217° Southwest 116 133 1,800 -660 Descending Chicago TRACON
09:01AM 42.0167 -87.8833 236° Southwest 121 139 1,200 -600 Descending Chicago TRACON
09:03AM 41.9817 -87.9067 217° Southwest  Level Estimated